Terminal Aerodrome Forecast
Issued by NWS

Home | Current Version | Previous Version | Text Only | Print | Product List | Glossary On
Versions: 1 2 3 4 5 6 7 8 9 10 11 12 13 14 15
000
FTPQ31 PGUM 210103 AAN
TAFTRO
TAF AMD
PTRO 210103Z 2101/2124 20007KT P6SM VCSH SCT016 SCT040 BKN120
      TEMPO 2101/2104 3SM SHRA BKN015=

USA.gov is the U.S. government's official web portal to all federal, state and local government web resources and services.